BEG airport status
LYBE 270100Z 29010KT 7000 FEW005 BKN033 14/14 Q1008 NOSIG

Izdvajamo

Automatizacija u kokpitu, pad morala posada i odlazak generacija koje su nekada zaista i doživele pravo letenje

Automatizacija u kokpitu, pad morala posada i odlazak generacija koje su nekada zaista i doživele pravo letenje

Stručnjak za bezbednost letenja u kompaniji Airbus Group pozvao je industriju da unapredi obuku za pilote i poslao snažno upozorenje civilnom

21 komentara Pročitaj više
Helimaster i Direktorat organizuju seminar o bezbednosti letenja

Helimaster i Direktorat organizuju seminar o bezbednosti letenja

Kompanija i ATO Helimaster i Direktorat Civilnog Vazduhoplovstva organizuju seminar posvećen bezbednosti letenja u helikopterskim operacijama. Jednodnevno okupljanje domaćih i

0 komentara Pročitaj više
Novi izgled aviona kompanije Wizz Air

Novi izgled aviona kompanije Wizz Air

Jedanaestu godinu rada kompanija Wizz Air obeležila je vanrednim letom Budimpeša-Varšava. To je bila prilika da se najave dalji planovi i

1 komentar Pročitaj više
Centar za istraživanje udesa objavio preliminarni izveštaj udesa Cesne 310 kod Ečke

Centar za istraživanje udesa objavio preliminarni izveštaj udesa Cesne 310 kod Ečke

Centar za istraživanje udesa i ozbiljnih nezgoda objavio je 30. marta informaciju o udesu aviona Cesna 310 škole letenja Pegaz.

0 komentara Pročitaj više